sensor_id;sensor_type;location;lat;lon;timestamp;P1;durP1;ratioP1;P2;durP2;ratioP2
7969;SDS011;4030;52.362;9.206;2024-02-21T00:02:03;12.38;;;8.60;;
7969;SDS011;4030;52.362;9.206;2024-02-21T00:04:29;12.02;;;8.15;;
7969;SDS011;4030;52.362;9.206;2024-02-21T00:06:54;13.27;;;8.65;;
7969;SDS011;4030;52.362;9.206;2024-02-21T00:09:20;13.63;;;8.80;;
7969;SDS011;4030;52.362;9.206;2024-02-21T00:11:46;15.88;;;9.25;;
7969;SDS011;4030;52.362;9.206;2024-02-21T00:14:12;14.07;;;9.10;;
7969;SDS011;4030;52.362;9.206;2024-02-21T00:16:38;13.73;;;8.77;;
7969;SDS011;4030;52.362;9.206;2024-02-21T00:19:04;13.05;;;8.48;;
7969;SDS011;4030;52.362;9.206;2024-02-21T00:21:29;12.68;;;9.00;;
7969;SDS011;4030;52.362;9.206;2024-02-21T00:23:55;13.93;;;9.05;;
7969;SDS011;4030;52.362;9.206;2024-02-21T00:26:21;14.43;;;9.10;;
7969;SDS011;4030;52.362;9.206;2024-02-21T00:28:46;12.68;;;8.82;;
7969;SDS011;4030;52.362;9.206;2024-02-21T00:31:12;11.32;;;8.35;;
7969;SDS011;4030;52.362;9.206;2024-02-21T00:33:38;12.43;;;8.20;;
7969;SDS011;4030;52.362;9.206;2024-02-21T00:36:03;12.93;;;9.15;;
7969;SDS011;4030;52.362;9.206;2024-02-21T00:38:29;12.32;;;9.60;;
7969;SDS011;4030;52.362;9.206;2024-02-21T00:40:55;14.60;;;9.07;;
7969;SDS011;4030;52.362;9.206;2024-02-21T00:43:21;14.73;;;9.20;;
7969;SDS011;4030;52.362;9.206;2024-02-21T00:45:48;12.75;;;9.05;;
7969;SDS011;4030;52.362;9.206;2024-02-21T00:48:15;12.43;;;8.90;;
7969;SDS011;4030;52.362;9.206;2024-02-21T00:50:40;12.63;;;8.95;;
7969;SDS011;4030;52.362;9.206;2024-02-21T00:53:06;12.35;;;9.15;;
7969;SDS011;4030;52.362;9.206;2024-02-21T00:55:32;14.05;;;9.25;;
7969;SDS011;4030;52.362;9.206;2024-02-21T00:57:57;13.10;;;9.35;;
7969;SDS011;4030;52.362;9.206;2024-02-21T01:00:23;11.32;;;9.27;;
7969;SDS011;4030;52.362;9.206;2024-02-21T01:02:49;13.57;;;8.30;;
7969;SDS011;4030;52.362;9.206;2024-02-21T01:05:14;12.63;;;9.32;;
7969;SDS011;4030;52.362;9.206;2024-02-21T01:07:40;13.80;;;9.43;;
7969;SDS011;4030;52.362;9.206;2024-02-21T01:10:06;14.50;;;9.70;;
7969;SDS011;4030;52.362;9.206;2024-02-21T01:12:32;13.77;;;9.88;;
7969;SDS011;4030;52.362;9.206;2024-02-21T01:14:58;14.02;;;10.10;;
7969;SDS011;4030;52.362;9.206;2024-02-21T01:17:23;12.70;;;9.65;;
7969;SDS011;4030;52.362;9.206;2024-02-21T01:19:49;12.38;;;9.40;;
7969;SDS011;4030;52.362;9.206;2024-02-21T01:22:15;12.95;;;9.20;;
7969;SDS011;4030;52.362;9.206;2024-02-21T01:24:41;12.23;;;10.07;;
7969;SDS011;4030;52.362;9.206;2024-02-21T01:27:07;14.38;;;9.55;;
7969;SDS011;4030;52.362;9.206;2024-02-21T01:29:32;11.35;;;9.45;;
7969;SDS011;4030;52.362;9.206;2024-02-21T01:31:58;11.10;;;9.32;;
7969;SDS011;4030;52.362;9.206;2024-02-21T01:34:24;13.60;;;9.57;;
7969;SDS011;4030;52.362;9.206;2024-02-21T01:36:50;12.77;;;9.70;;
7969;SDS011;4030;52.362;9.206;2024-02-21T01:39:15;12.43;;;9.27;;
7969;SDS011;4030;52.362;9.206;2024-02-21T01:41:41;9.85;;;8.82;;
7969;SDS011;4030;52.362;9.206;2024-02-21T01:44:07;12.90;;;10.27;;
7969;SDS011;4030;52.362;9.206;2024-02-21T01:46:32;13.73;;;10.02;;
7969;SDS011;4030;52.362;9.206;2024-02-21T01:48:59;12.45;;;9.30;;
7969;SDS011;4030;52.362;9.206;2024-02-21T01:51:25;12.63;;;9.30;;
7969;SDS011;4030;52.362;9.206;2024-02-21T01:53:51;12.90;;;9.50;;
7969;SDS011;4030;52.362;9.206;2024-02-21T01:56:18;11.90;;;9.05;;
7969;SDS011;4030;52.362;9.206;2024-02-21T01:58:44;11.93;;;9.18;;
7969;SDS011;4030;52.362;9.206;2024-02-21T02:01:12;12.70;;;9.32;;
7969;SDS011;4030;52.362;9.206;2024-02-21T02:03:38;11.05;;;8.73;;
7969;SDS011;4030;52.362;9.206;2024-02-21T02:06:04;12.48;;;9.05;;
7969;SDS011;4030;52.362;9.206;2024-02-21T02:08:31;11.77;;;9.40;;
7969;SDS011;4030;52.362;9.206;2024-02-21T02:10:58;10.05;;;7.90;;
7969;SDS011;4030;52.362;9.206;2024-02-21T02:13:24;10.48;;;7.25;;
7969;SDS011;4030;52.362;9.206;2024-02-21T02:15:50;11.52;;;8.25;;
7969;SDS011;4030;52.362;9.206;2024-02-21T02:18:16;12.95;;;8.32;;
7969;SDS011;4030;52.362;9.206;2024-02-21T02:20:44;9.52;;;8.02;;
7969;SDS011;4030;52.362;9.206;2024-02-21T02:25:54;9.25;;;7.50;;
7969;SDS011;4030;52.362;9.206;2024-02-21T02:28:21;11.82;;;8.25;;
7969;SDS011;4030;52.362;9.206;2024-02-21T02:30:47;12.88;;;8.85;;
7969;SDS011;4030;52.362;9.206;2024-02-21T02:33:14;11.18;;;7.90;;
7969;SDS011;4030;52.362;9.206;2024-02-21T02:35:39;11.32;;;8.57;;
7969;SDS011;4030;52.362;9.206;2024-02-21T02:38:05;10.40;;;8.27;;
7969;SDS011;4030;52.362;9.206;2024-02-21T02:40:33;9.15;;;8.25;;
7969;SDS011;4030;52.362;9.206;2024-02-21T02:42:59;10.02;;;8.05;;
7969;SDS011;4030;52.362;9.206;2024-02-21T02:45:25;7.75;;;7.00;;
7969;SDS011;4030;52.362;9.206;2024-02-21T02:47:54;8.75;;;6.88;;
7969;SDS011;4030;52.362;9.206;2024-02-21T02:50:21;10.15;;;8.05;;
7969;SDS011;4030;52.362;9.206;2024-02-21T02:52:48;10.27;;;8.52;;
7969;SDS011;4030;52.362;9.206;2024-02-21T02:55:14;11.95;;;8.95;;
7969;SDS011;4030;52.362;9.206;2024-02-21T02:57:40;13.68;;;9.25;;
7969;SDS011;4030;52.362;9.206;2024-02-21T03:00:08;12.07;;;8.65;;
7969;SDS011;4030;52.362;9.206;2024-02-21T03:02:38;11.32;;;8.85;;
7969;SDS011;4030;52.362;9.206;2024-02-21T03:05:13;11.88;;;8.75;;
7969;SDS011;4030;52.362;9.206;2024-02-21T03:07:48;11.77;;;8.52;;
7969;SDS011;4030;52.362;9.206;2024-02-21T03:10:15;12.35;;;8.32;;
7969;SDS011;4030;52.362;9.206;2024-02-21T03:12:43;11.35;;;8.82;;
7969;SDS011;4030;52.362;9.206;2024-02-21T03:15:09;12.15;;;8.60;;
7969;SDS011;4030;52.362;9.206;2024-02-21T03:17:35;10.45;;;7.20;;
7969;SDS011;4030;52.362;9.206;2024-02-21T03:20:01;10.38;;;7.90;;
7969;SDS011;4030;52.362;9.206;2024-02-21T03:22:30;12.07;;;8.13;;
7969;SDS011;4030;52.362;9.206;2024-02-21T03:24:57;13.90;;;9.10;;
7969;SDS011;4030;52.362;9.206;2024-02-21T03:27:23;10.13;;;8.82;;
7969;SDS011;4030;52.362;9.206;2024-02-21T03:29:48;13.13;;;10.07;;
7969;SDS011;4030;52.362;9.206;2024-02-21T03:32:14;14.10;;;9.60;;
7969;SDS011;4030;52.362;9.206;2024-02-21T03:34:40;12.55;;;9.30;;
7969;SDS011;4030;52.362;9.206;2024-02-21T03:37:05;13.43;;;9.48;;
7969;SDS011;4030;52.362;9.206;2024-02-21T03:39:31;13.48;;;9.68;;
7969;SDS011;4030;52.362;9.206;2024-02-21T03:41:57;10.40;;;8.15;;
7969;SDS011;4030;52.362;9.206;2024-02-21T03:44:26;13.45;;;9.27;;
7969;SDS011;4030;52.362;9.206;2024-02-21T03:46:52;11.18;;;9.27;;
7969;SDS011;4030;52.362;9.206;2024-02-21T03:49:18;15.55;;;10.27;;
7969;SDS011;4030;52.362;9.206;2024-02-21T03:51:43;12.05;;;9.20;;
7969;SDS011;4030;52.362;9.206;2024-02-21T03:54:09;14.27;;;9.75;;
7969;SDS011;4030;52.362;9.206;2024-02-21T03:56:37;12.45;;;10.18;;
7969;SDS011;4030;52.362;9.206;2024-02-21T03:59:04;13.70;;;10.02;;
7969;SDS011;4030;52.362;9.206;2024-02-21T04:01:33;14.00;;;10.07;;
7969;SDS011;4030;52.362;9.206;2024-02-21T04:04:00;13.15;;;9.70;;
7969;SDS011;4030;52.362;9.206;2024-02-21T04:06:26;12.73;;;9.75;;
7969;SDS011;4030;52.362;9.206;2024-02-21T04:08:52;12.13;;;9.82;;
7969;SDS011;4030;52.362;9.206;2024-02-21T04:11:18;11.57;;;9.93;;
7969;SDS011;4030;52.362;9.206;2024-02-21T04:13:44;9.32;;;7.78;;
7969;SDS011;4030;52.362;9.206;2024-02-21T04:16:10;10.98;;;9.55;;
7969;SDS011;4030;52.362;9.206;2024-02-21T04:18:36;12.77;;;9.68;;
7969;SDS011;4030;52.362;9.206;2024-02-21T04:21:01;11.68;;;9.65;;
7969;SDS011;4030;52.362;9.206;2024-02-21T04:23:27;12.50;;;10.05;;
7969;SDS011;4030;52.362;9.206;2024-02-21T04:25:53;12.10;;;8.27;;
7969;SDS011;4030;52.362;9.206;2024-02-21T04:28:18;12.73;;;9.25;;
7969;SDS011;4030;52.362;9.206;2024-02-21T04:30:44;8.95;;;7.93;;
7969;SDS011;4030;52.362;9.206;2024-02-21T04:33:10;13.60;;;10.15;;
7969;SDS011;4030;52.362;9.206;2024-02-21T04:35:36;12.25;;;10.00;;
7969;SDS011;4030;52.362;9.206;2024-02-21T04:38:02;12.93;;;9.93;;
7969;SDS011;4030;52.362;9.206;2024-02-21T04:40:27;13.20;;;9.73;;
7969;SDS011;4030;52.362;9.206;2024-02-21T04:42:53;14.98;;;10.48;;
7969;SDS011;4030;52.362;9.206;2024-02-21T04:45:19;13.80;;;10.43;;
7969;SDS011;4030;52.362;9.206;2024-02-21T04:47:45;15.23;;;11.07;;
7969;SDS011;4030;52.362;9.206;2024-02-21T04:50:10;13.05;;;11.48;;
7969;SDS011;4030;52.362;9.206;2024-02-21T04:52:36;12.80;;;10.63;;
7969;SDS011;4030;52.362;9.206;2024-02-21T04:55:02;11.05;;;9.43;;
7969;SDS011;4030;52.362;9.206;2024-02-21T04:57:28;11.27;;;8.68;;
7969;SDS011;4030;52.362;9.206;2024-02-21T04:59:53;12.05;;;10.35;;
7969;SDS011;4030;52.362;9.206;2024-02-21T05:02:19;10.38;;;8.82;;
7969;SDS011;4030;52.362;9.206;2024-02-21T05:04:47;11.30;;;9.68;;
7969;SDS011;4030;52.362;9.206;2024-02-21T05:07:13;12.43;;;10.38;;
7969;SDS011;4030;52.362;9.206;2024-02-21T05:09:38;16.40;;;11.00;;
7969;SDS011;4030;52.362;9.206;2024-02-21T05:12:04;11.70;;;10.00;;
7969;SDS011;4030;52.362;9.206;2024-02-21T05:14:30;12.15;;;10.43;;
7969;SDS011;4030;52.362;9.206;2024-02-21T05:16:55;12.88;;;10.52;;
7969;SDS011;4030;52.362;9.206;2024-02-21T05:19:21;12.35;;;11.05;;
7969;SDS011;4030;52.362;9.206;2024-02-21T05:21:47;10.57;;;9.00;;
7969;SDS011;4030;52.362;9.206;2024-02-21T05:24:12;13.00;;;10.13;;
7969;SDS011;4030;52.362;9.206;2024-02-21T05:26:38;12.95;;;10.60;;
7969;SDS011;4030;52.362;9.206;2024-02-21T05:29:04;15.25;;;11.27;;
7969;SDS011;4030;52.362;9.206;2024-02-21T05:34:20;13.23;;;10.15;;
7969;SDS011;4030;52.362;9.206;2024-02-21T05:36:46;14.32;;;10.80;;
7969;SDS011;4030;52.362;9.206;2024-02-21T05:39:13;12.25;;;10.65;;
7969;SDS011;4030;52.362;9.206;2024-02-21T05:41:39;9.63;;;8.70;;
7969;SDS011;4030;52.362;9.206;2024-02-21T05:44:05;12.15;;;10.77;;
7969;SDS011;4030;52.362;9.206;2024-02-21T05:46:31;13.15;;;10.73;;
7969;SDS011;4030;52.362;9.206;2024-02-21T05:48:57;15.10;;;11.43;;
7969;SDS011;4030;52.362;9.206;2024-02-21T05:51:22;11.52;;;10.27;;
7969;SDS011;4030;52.362;9.206;2024-02-21T05:53:48;12.73;;;10.77;;
7969;SDS011;4030;52.362;9.206;2024-02-21T05:56:14;11.88;;;10.13;;
7969;SDS011;4030;52.362;9.206;2024-02-21T05:58:40;11.13;;;9.93;;
7969;SDS011;4030;52.362;9.206;2024-02-21T06:01:07;13.95;;;10.57;;
7969;SDS011;4030;52.362;9.206;2024-02-21T06:03:33;13.32;;;10.68;;
7969;SDS011;4030;52.362;9.206;2024-02-21T06:05:59;11.32;;;10.18;;
7969;SDS011;4030;52.362;9.206;2024-02-21T06:08:25;10.90;;;9.35;;
7969;SDS011;4030;52.362;9.206;2024-02-21T06:10:51;11.40;;;10.20;;
7969;SDS011;4030;52.362;9.206;2024-02-21T06:13:26;11.30;;;9.70;;
7969;SDS011;4030;52.362;9.206;2024-02-21T06:15:52;12.45;;;9.57;;
7969;SDS011;4030;52.362;9.206;2024-02-21T06:18:18;14.10;;;9.65;;
7969;SDS011;4030;52.362;9.206;2024-02-21T06:20:44;9.27;;;7.90;;
7969;SDS011;4030;52.362;9.206;2024-02-21T06:23:11;12.40;;;9.38;;
7969;SDS011;4030;52.362;9.206;2024-02-21T06:25:37;10.90;;;9.60;;
7969;SDS011;4030;52.362;9.206;2024-02-21T06:28:04;10.52;;;8.60;;
7969;SDS011;4030;52.362;9.206;2024-02-21T06:30:30;11.75;;;9.25;;
7969;SDS011;4030;52.362;9.206;2024-02-21T06:32:56;11.23;;;8.02;;
7969;SDS011;4030;52.362;9.206;2024-02-21T06:35:22;12.07;;;9.02;;
7969;SDS011;4030;52.362;9.206;2024-02-21T06:37:49;10.57;;;9.38;;
7969;SDS011;4030;52.362;9.206;2024-02-21T06:40:20;12.07;;;9.05;;
7969;SDS011;4030;52.362;9.206;2024-02-21T06:42:47;11.82;;;9.30;;
7969;SDS011;4030;52.362;9.206;2024-02-21T06:45:14;11.93;;;10.13;;
7969;SDS011;4030;52.362;9.206;2024-02-21T06:47:40;10.95;;;9.82;;
7969;SDS011;4030;52.362;9.206;2024-02-21T06:50:06;11.52;;;8.95;;
7969;SDS011;4030;52.362;9.206;2024-02-21T06:52:33;10.13;;;8.93;;
7969;SDS011;4030;52.362;9.206;2024-02-21T06:54:59;11.00;;;9.20;;
7969;SDS011;4030;52.362;9.206;2024-02-21T06:57:25;10.55;;;9.35;;
7969;SDS011;4030;52.362;9.206;2024-02-21T06:59:51;10.65;;;8.85;;
7969;SDS011;4030;52.362;9.206;2024-02-21T07:02:17;10.63;;;9.05;;
7969;SDS011;4030;52.362;9.206;2024-02-21T07:04:42;9.68;;;8.75;;
7969;SDS011;4030;52.362;9.206;2024-02-21T07:07:08;12.50;;;9.02;;
7969;SDS011;4030;52.362;9.206;2024-02-21T07:09:34;10.95;;;8.80;;
7969;SDS011;4030;52.362;9.206;2024-02-21T07:12:00;10.57;;;8.48;;
7969;SDS011;4030;52.362;9.206;2024-02-21T07:14:27;9.65;;;8.35;;
7969;SDS011;4030;52.362;9.206;2024-02-21T07:16:53;10.88;;;8.60;;
7969;SDS011;4030;52.362;9.206;2024-02-21T07:19:19;11.48;;;8.48;;
7969;SDS011;4030;52.362;9.206;2024-02-21T07:21:45;11.35;;;8.15;;
7969;SDS011;4030;52.362;9.206;2024-02-21T07:24:11;11.20;;;8.57;;
7969;SDS011;4030;52.362;9.206;2024-02-21T07:26:37;9.50;;;7.53;;
7969;SDS011;4030;52.362;9.206;2024-02-21T07:29:07;11.70;;;8.57;;
7969;SDS011;4030;52.362;9.206;2024-02-21T07:31:38;9.63;;;8.63;;
7969;SDS011;4030;52.362;9.206;2024-02-21T07:34:08;12.93;;;8.02;;
7969;SDS011;4030;52.362;9.206;2024-02-21T07:36:34;10.75;;;8.90;;
7969;SDS011;4030;52.362;9.206;2024-02-21T07:39:00;10.55;;;8.20;;
7969;SDS011;4030;52.362;9.206;2024-02-21T07:41:25;11.68;;;7.82;;
7969;SDS011;4030;52.362;9.206;2024-02-21T07:43:51;10.60;;;8.23;;
7969;SDS011;4030;52.362;9.206;2024-02-21T07:46:20;9.32;;;7.80;;
7969;SDS011;4030;52.362;9.206;2024-02-21T07:48:46;10.68;;;8.48;;
7969;SDS011;4030;52.362;9.206;2024-02-21T07:51:12;11.48;;;7.18;;
7969;SDS011;4030;52.362;9.206;2024-02-21T07:53:41;10.90;;;8.32;;
7969;SDS011;4030;52.362;9.206;2024-02-21T07:56:13;9.30;;;7.90;;
7969;SDS011;4030;52.362;9.206;2024-02-21T07:58:42;11.88;;;8.65;;
7969;SDS011;4030;52.362;9.206;2024-02-21T08:01:09;10.15;;;7.60;;
7969;SDS011;4030;52.362;9.206;2024-02-21T08:03:35;11.18;;;8.00;;
7969;SDS011;4030;52.362;9.206;2024-02-21T08:06:01;10.85;;;8.20;;
7969;SDS011;4030;52.362;9.206;2024-02-21T08:08:28;10.90;;;8.55;;
7969;SDS011;4030;52.362;9.206;2024-02-21T08:10:54;9.30;;;7.95;;
7969;SDS011;4030;52.362;9.206;2024-02-21T08:13:19;10.60;;;7.82;;
7969;SDS011;4030;52.362;9.206;2024-02-21T08:15:45;9.52;;;7.95;;
7969;SDS011;4030;52.362;9.206;2024-02-21T08:18:11;10.43;;;8.30;;
7969;SDS011;4030;52.362;9.206;2024-02-21T08:20:37;10.32;;;8.15;;
7969;SDS011;4030;52.362;9.206;2024-02-21T08:23:02;11.77;;;8.00;;
7969;SDS011;4030;52.362;9.206;2024-02-21T08:25:28;11.45;;;8.15;;
7969;SDS011;4030;52.362;9.206;2024-02-21T08:27:57;11.07;;;7.85;;
7969;SDS011;4030;52.362;9.206;2024-02-21T08:30:24;10.00;;;7.40;;
7969;SDS011;4030;52.362;9.206;2024-02-21T08:32:50;7.78;;;6.95;;
7969;SDS011;4030;52.362;9.206;2024-02-21T08:35:15;10.23;;;7.88;;
7969;SDS011;4030;52.362;9.206;2024-02-21T08:37:43;10.23;;;6.95;;
7969;SDS011;4030;52.362;9.206;2024-02-21T08:40:09;8.93;;;6.65;;
7969;SDS011;4030;52.362;9.206;2024-02-21T08:42:35;10.48;;;6.95;;
7969;SDS011;4030;52.362;9.206;2024-02-21T08:45:03;8.82;;;6.07;;
7969;SDS011;4030;52.362;9.206;2024-02-21T08:47:29;7.90;;;6.65;;
7969;SDS011;4030;52.362;9.206;2024-02-21T08:49:55;9.80;;;6.63;;
7969;SDS011;4030;52.362;9.206;2024-02-21T08:52:21;9.63;;;6.25;;
7969;SDS011;4030;52.362;9.206;2024-02-21T08:54:46;10.63;;;6.35;;
7969;SDS011;4030;52.362;9.206;2024-02-21T08:57:12;8.63;;;5.93;;
7969;SDS011;4030;52.362;9.206;2024-02-21T08:59:41;7.85;;;5.72;;
7969;SDS011;4030;52.362;9.206;2024-02-21T09:02:06;9.10;;;5.53;;
7969;SDS011;4030;52.362;9.206;2024-02-21T09:04:33;8.60;;;5.72;;
7969;SDS011;4030;52.362;9.206;2024-02-21T09:06:59;7.90;;;5.03;;
7969;SDS011;4030;52.362;9.206;2024-02-21T09:09:25;7.18;;;5.20;;
7969;SDS011;4030;52.362;9.206;2024-02-21T09:11:51;8.23;;;5.13;;
7969;SDS011;4030;52.362;9.206;2024-02-21T09:14:17;8.48;;;4.82;;
7969;SDS011;4030;52.362;9.206;2024-02-21T09:16:42;8.02;;;5.15;;
7969;SDS011;4030;52.362;9.206;2024-02-21T09:19:09;8.05;;;5.43;;
7969;SDS011;4030;52.362;9.206;2024-02-21T09:21:36;6.93;;;4.78;;
7969;SDS011;4030;52.362;9.206;2024-02-21T09:24:03;8.68;;;4.57;;
7969;SDS011;4030;52.362;9.206;2024-02-21T09:26:30;5.82;;;4.13;;
7969;SDS011;4030;52.362;9.206;2024-02-21T09:28:56;7.10;;;4.35;;
7969;SDS011;4030;52.362;9.206;2024-02-21T09:31:21;8.25;;;4.32;;
7969;SDS011;4030;52.362;9.206;2024-02-21T09:33:47;8.63;;;4.57;;
7969;SDS011;4030;52.362;9.206;2024-02-21T09:36:13;7.43;;;4.22;;
7969;SDS011;4030;52.362;9.206;2024-02-21T09:38:39;7.25;;;4.40;;
7969;SDS011;4030;52.362;9.206;2024-02-21T09:41:16;7.35;;;4.13;;
7969;SDS011;4030;52.362;9.206;2024-02-21T09:43:44;7.07;;;4.30;;
7969;SDS011;4030;52.362;9.206;2024-02-21T09:46:15;7.10;;;4.05;;
7969;SDS011;4030;52.362;9.206;2024-02-21T09:51:39;5.53;;;3.50;;
7969;SDS011;4030;52.362;9.206;2024-02-21T09:54:07;7.28;;;3.40;;
7969;SDS011;4030;52.362;9.206;2024-02-21T09:56:33;6.05;;;3.35;;
7969;SDS011;4030;52.362;9.206;2024-02-21T09:58:58;6.43;;;3.40;;
7969;SDS011;4030;52.362;9.206;2024-02-21T10:01:29;6.70;;;3.63;;
7969;SDS011;4030;52.362;9.206;2024-02-21T10:03:57;8.20;;;3.53;;
7969;SDS011;4030;52.362;9.206;2024-02-21T10:06:22;5.63;;;3.28;;
7969;SDS011;4030;52.362;9.206;2024-02-21T10:08:55;6.97;;;3.78;;
7969;SDS011;4030;52.362;9.206;2024-02-21T10:11:24;6.00;;;3.55;;
7969;SDS011;4030;52.362;9.206;2024-02-21T10:13:51;7.28;;;3.85;;
7969;SDS011;4030;52.362;9.206;2024-02-21T10:16:28;6.78;;;3.70;;
7969;SDS011;4030;52.362;9.206;2024-02-21T10:18:54;6.38;;;2.97;;
7969;SDS011;4030;52.362;9.206;2024-02-21T10:21:20;8.32;;;3.50;;
7969;SDS011;4030;52.362;9.206;2024-02-21T10:23:49;4.68;;;2.95;;
7969;SDS011;4030;52.362;9.206;2024-02-21T10:26:19;7.75;;;3.03;;
7969;SDS011;4030;52.362;9.206;2024-02-21T10:28:45;5.45;;;3.00;;
7969;SDS011;4030;52.362;9.206;2024-02-21T10:31:25;5.57;;;3.17;;
7969;SDS011;4030;52.362;9.206;2024-02-21T10:33:53;6.20;;;3.22;;
7969;SDS011;4030;52.362;9.206;2024-02-21T10:36:23;4.88;;;2.58;;
7969;SDS011;4030;52.362;9.206;2024-02-21T10:38:50;4.05;;;2.35;;
7969;SDS011;4030;52.362;9.206;2024-02-21T10:41:17;4.75;;;2.45;;
7969;SDS011;4030;52.362;9.206;2024-02-21T10:43:52;5.07;;;2.58;;
7969;SDS011;4030;52.362;9.206;2024-02-21T10:46:20;5.20;;;2.70;;
7969;SDS011;4030;52.362;9.206;2024-02-21T10:48:48;5.05;;;2.47;;
7969;SDS011;4030;52.362;9.206;2024-02-21T10:51:35;5.50;;;2.63;;
7969;SDS011;4030;52.362;9.206;2024-02-21T10:57:10;3.17;;;2.20;;
7969;SDS011;4030;52.362;9.206;2024-02-21T10:59:39;4.72;;;2.28;;
7969;SDS011;4030;52.362;9.206;2024-02-21T11:02:06;5.50;;;2.40;;
7969;SDS011;4030;52.362;9.206;2024-02-21T11:04:32;4.57;;;2.30;;
7969;SDS011;4030;52.362;9.206;2024-02-21T11:07:03;4.85;;;2.35;;
7969;SDS011;4030;52.362;9.206;2024-02-21T11:09:30;3.28;;;2.30;;
7969;SDS011;4030;52.362;9.206;2024-02-21T11:11:57;3.88;;;2.30;;
7969;SDS011;4030;52.362;9.206;2024-02-21T11:14:27;5.05;;;2.35;;
7969;SDS011;4030;52.362;9.206;2024-02-21T11:16:53;3.83;;;2.00;;
7969;SDS011;4030;52.362;9.206;2024-02-21T11:19:21;3.50;;;2.25;;
7969;SDS011;4030;52.362;9.206;2024-02-21T11:21:50;3.13;;;2.03;;
7969;SDS011;4030;52.362;9.206;2024-02-21T11:24:30;4.05;;;2.10;;
7969;SDS011;4030;52.362;9.206;2024-02-21T11:27:13;3.80;;;2.10;;
7969;SDS011;4030;52.362;9.206;2024-02-21T11:29:44;4.13;;;1.83;;
7969;SDS011;4030;52.362;9.206;2024-02-21T11:32:11;5.50;;;2.10;;
7969;SDS011;4030;52.362;9.206;2024-02-21T11:34:41;3.38;;;1.90;;
7969;SDS011;4030;52.362;9.206;2024-02-21T11:37:18;3.90;;;1.92;;
7969;SDS011;4030;52.362;9.206;2024-02-21T11:39:44;3.28;;;1.77;;
7969;SDS011;4030;52.362;9.206;2024-02-21T11:42:10;4.13;;;1.75;;
7969;SDS011;4030;52.362;9.206;2024-02-21T11:44:37;3.72;;;1.98;;
7969;SDS011;4030;52.362;9.206;2024-02-21T11:47:04;2.50;;;1.60;;
7969;SDS011;4030;52.362;9.206;2024-02-21T11:49:36;4.18;;;1.80;;
7969;SDS011;4030;52.362;9.206;2024-02-21T11:52:06;3.10;;;1.60;;
7969;SDS011;4030;52.362;9.206;2024-02-21T11:54:32;3.83;;;1.90;;
7969;SDS011;4030;52.362;9.206;2024-02-21T11:56:59;3.47;;;1.73;;
7969;SDS011;4030;52.362;9.206;2024-02-21T11:59:26;2.22;;;1.70;;
7969;SDS011;4030;52.362;9.206;2024-02-21T12:01:52;2.80;;;1.65;;
7969;SDS011;4030;52.362;9.206;2024-02-21T12:04:18;4.22;;;1.92;;
7969;SDS011;4030;52.362;9.206;2024-02-21T12:06:45;2.42;;;1.50;;
7969;SDS011;4030;52.362;9.206;2024-02-21T12:09:15;2.92;;;1.60;;
7969;SDS011;4030;52.362;9.206;2024-02-21T12:11:41;3.50;;;1.75;;
7969;SDS011;4030;52.362;9.206;2024-02-21T12:14:07;3.20;;;1.73;;
7969;SDS011;4030;52.362;9.206;2024-02-21T12:16:34;3.17;;;2.00;;
7969;SDS011;4030;52.362;9.206;2024-02-21T12:19:02;3.33;;;1.95;;
7969;SDS011;4030;52.362;9.206;2024-02-21T12:21:31;3.05;;;2.05;;
7969;SDS011;4030;52.362;9.206;2024-02-21T12:24:11;3.50;;;2.10;;
7969;SDS011;4030;52.362;9.206;2024-02-21T12:26:40;3.03;;;2.10;;
7969;SDS011;4030;52.362;9.206;2024-02-21T12:29:06;4.22;;;2.42;;
7969;SDS011;4030;52.362;9.206;2024-02-21T12:31:38;4.68;;;2.30;;
7969;SDS011;4030;52.362;9.206;2024-02-21T12:34:04;3.78;;;2.42;;
7969;SDS011;4030;52.362;9.206;2024-02-21T12:36:31;5.72;;;2.80;;
7969;SDS011;4030;52.362;9.206;2024-02-21T12:38:57;4.40;;;2.88;;
7969;SDS011;4030;52.362;9.206;2024-02-21T12:41:24;5.20;;;2.75;;
7969;SDS011;4030;52.362;9.206;2024-02-21T12:43:51;4.32;;;3.03;;
7969;SDS011;4030;52.362;9.206;2024-02-21T12:46:17;4.05;;;3.38;;
7969;SDS011;4030;52.362;9.206;2024-02-21T12:48:43;4.60;;;3.05;;
7969;SDS011;4030;52.362;9.206;2024-02-21T12:51:09;4.70;;;3.47;;
7969;SDS011;4030;52.362;9.206;2024-02-21T12:53:35;4.93;;;3.60;;
7969;SDS011;4030;52.362;9.206;2024-02-21T12:56:01;5.38;;;3.70;;
7969;SDS011;4030;52.362;9.206;2024-02-21T12:58:27;5.75;;;3.47;;
7969;SDS011;4030;52.362;9.206;2024-02-21T13:00:56;5.35;;;3.92;;
7969;SDS011;4030;52.362;9.206;2024-02-21T13:03:22;5.38;;;3.72;;
7969;SDS011;4030;52.362;9.206;2024-02-21T13:05:48;5.13;;;3.88;;
7969;SDS011;4030;52.362;9.206;2024-02-21T13:08:13;7.00;;;4.10;;
7969;SDS011;4030;52.362;9.206;2024-02-21T13:10:39;7.68;;;4.10;;
7969;SDS011;4030;52.362;9.206;2024-02-21T13:13:05;6.18;;;4.50;;
7969;SDS011;4030;52.362;9.206;2024-02-21T13:15:30;6.68;;;4.68;;
7969;SDS011;4030;52.362;9.206;2024-02-21T13:17:56;7.95;;;4.75;;
7969;SDS011;4030;52.362;9.206;2024-02-21T13:20:23;6.25;;;4.70;;
7969;SDS011;4030;52.362;9.206;2024-02-21T13:22:50;6.65;;;4.40;;
7969;SDS011;4030;52.362;9.206;2024-02-21T13:25:16;5.40;;;4.28;;
7969;SDS011;4030;52.362;9.206;2024-02-21T13:27:45;5.97;;;4.13;;
7969;SDS011;4030;52.362;9.206;2024-02-21T13:30:11;7.05;;;4.20;;
7969;SDS011;4030;52.362;9.206;2024-02-21T13:32:37;5.07;;;3.70;;
7969;SDS011;4030;52.362;9.206;2024-02-21T13:35:04;5.22;;;3.95;;
7969;SDS011;4030;52.362;9.206;2024-02-21T13:37:30;5.45;;;4.03;;
7969;SDS011;4030;52.362;9.206;2024-02-21T13:39:57;4.60;;;3.38;;
7969;SDS011;4030;52.362;9.206;2024-02-21T13:42:22;5.43;;;3.55;;
7969;SDS011;4030;52.362;9.206;2024-02-21T13:44:52;5.10;;;3.17;;
7969;SDS011;4030;52.362;9.206;2024-02-21T13:47:17;4.10;;;2.85;;
7969;SDS011;4030;52.362;9.206;2024-02-21T13:49:43;3.85;;;2.83;;
7969;SDS011;4030;52.362;9.206;2024-02-21T13:52:09;4.43;;;3.30;;
7969;SDS011;4030;52.362;9.206;2024-02-21T13:54:35;4.32;;;2.72;;
7969;SDS011;4030;52.362;9.206;2024-02-21T13:57:00;4.03;;;2.60;;
7969;SDS011;4030;52.362;9.206;2024-02-21T13:59:27;5.35;;;2.70;;
7969;SDS011;4030;52.362;9.206;2024-02-21T14:01:53;4.07;;;2.67;;
7969;SDS011;4030;52.362;9.206;2024-02-21T14:04:19;3.33;;;2.53;;
7969;SDS011;4030;52.362;9.206;2024-02-21T14:06:45;4.40;;;2.60;;
7969;SDS011;4030;52.362;9.206;2024-02-21T14:09:11;4.57;;;2.70;;
7969;SDS011;4030;52.362;9.206;2024-02-21T14:11:38;5.07;;;2.35;;
7969;SDS011;4030;52.362;9.206;2024-02-21T14:14:05;4.78;;;2.67;;
7969;SDS011;4030;52.362;9.206;2024-02-21T14:16:31;4.53;;;2.38;;
7969;SDS011;4030;52.362;9.206;2024-02-21T14:18:57;4.60;;;2.10;;
7969;SDS011;4030;52.362;9.206;2024-02-21T14:21:23;4.63;;;2.40;;
7969;SDS011;4030;52.362;9.206;2024-02-21T14:23:48;5.95;;;2.28;;
7969;SDS011;4030;52.362;9.206;2024-02-21T14:26:14;3.67;;;2.08;;
7969;SDS011;4030;52.362;9.206;2024-02-21T14:28:40;5.32;;;2.10;;
7969;SDS011;4030;52.362;9.206;2024-02-21T14:31:06;3.50;;;2.17;;
7969;SDS011;4030;52.362;9.206;2024-02-21T14:33:34;4.45;;;2.10;;
7969;SDS011;4030;52.362;9.206;2024-02-21T14:36:00;4.40;;;2.03;;
7969;SDS011;4030;52.362;9.206;2024-02-21T14:38:27;4.65;;;1.95;;
7969;SDS011;4030;52.362;9.206;2024-02-21T14:40:53;3.25;;;1.95;;
7969;SDS011;4030;52.362;9.206;2024-02-21T14:43:19;4.05;;;1.83;;
7969;SDS011;4030;52.362;9.206;2024-02-21T14:45:48;3.78;;;2.05;;
7969;SDS011;4030;52.362;9.206;2024-02-21T14:48:14;3.05;;;2.05;;
7969;SDS011;4030;52.362;9.206;2024-02-21T14:50:40;3.53;;;1.67;;
7969;SDS011;4030;52.362;9.206;2024-02-21T14:53:07;3.70;;;1.73;;
7969;SDS011;4030;52.362;9.206;2024-02-21T14:55:36;4.50;;;2.00;;
7969;SDS011;4030;52.362;9.206;2024-02-21T14:58:05;3.72;;;1.85;;
7969;SDS011;4030;52.362;9.206;2024-02-21T15:00:32;2.95;;;1.98;;
7969;SDS011;4030;52.362;9.206;2024-02-21T15:02:58;3.45;;;1.90;;
7969;SDS011;4030;52.362;9.206;2024-02-21T15:05:24;3.53;;;1.95;;
7969;SDS011;4030;52.362;9.206;2024-02-21T15:07:50;3.13;;;1.70;;
7969;SDS011;4030;52.362;9.206;2024-02-21T15:10:16;3.03;;;2.08;;
7969;SDS011;4030;52.362;9.206;2024-02-21T15:12:45;3.47;;;2.08;;
7969;SDS011;4030;52.362;9.206;2024-02-21T15:15:11;2.28;;;1.60;;
7969;SDS011;4030;52.362;9.206;2024-02-21T15:17:37;3.13;;;1.70;;